Nearby METAR Reports

Meteorological Terminal Air Report (METAR)

K3I2 - Pt Pleasant, West Virginia, USA
Distance from station: S 11mi, 18km
Updated: Tue, 11-Jun-2019 7:30am EDT
NOT Current
Clear
Clear
 Wind from calm
Wind: Calm
Temperature: 54°F , 12°C
Dew Point: 54°F , 12°C
Humidity: 100%
Barometer: 30.23 inHg , 1023.7 hPa
Clouds: Clear
Visibility: 10 miles , 16 km
2019/06/11 11:30 K3I2 111130Z AUTO 00000KT 10SM CLR 12/12 A3023 RMK AO2 T01190115 PNO
KUNI - Athens, Ohio, USA
Distance from station: NW 13mi, 21km
Updated: Mon, 24-Jun-2019 11:15pm EDT
Partly cloudy
Partly cloudy
 Wind from WSW
Wind: WSW 8 mph , 13 km/h
Temperature: 68°F , 20°C
Dew Point: 68°F , 20°C
Humidity: 100%
Barometer: 29.82 inHg , 1009.8 hPa
Clouds: Partly cloudy
Visibility: 10 miles , 16 km
Cloud details: Partly cloudy 800 ft
Partly cloudy 1200 ft
2019/06/25 03:15 KUNI 250315Z AUTO 24007KT 10SM SCT008 SCT012 20/20 A2982 RMK AO2 T02020202
 
KPKB - Parkersburg, West Virginia, USA
Distance from station: ENE 40mi, 65km
Updated: Mon, 24-Jun-2019 11:15pm EDT
Mostly cloudy
Mostly cloudy
 Wind from varies
Wind: varies 6 mph , 9 km/h
Temperature: 70°F , 21°C
Dew Point: 66°F , 19°C
Humidity: 88%
Barometer: 29.85 inHg , 1010.8 hPa
Clouds: Mostly cloudy
Visibility: 10 miles , 16 km
Cloud details: Partly cloudy 1100 ft
Mostly cloudy 1700 ft
Mostly cloudy 2300 ft
2019/06/25 03:15 KPKB 250315Z AUTO VRB05KT 10SM SCT011 BKN017 BKN023 21/19 A2985 RMK AO2 T02110194
KCRW - Charleston, West Virginia, USA
Distance from station: SSE 55mi, 88km
Updated: Mon, 24-Jun-2019 10:54pm EDT
Partly cloudy
Partly cloudy
 Wind from WSW
Wind: WSW 8 mph , 13 km/h
Temperature: 72°F , 22°C
Dew Point: 70°F , 21°C
Humidity: 94%
Barometer: 29.87 inHg , 1011.5 hPa
Clouds: Partly cloudy
Visibility: 10 miles , 16 km
Cloud details: Partly cloudy 2900 ft
2019/06/25 02:54 KCRW 250254Z 24007KT 10SM SCT029 22/21 A2987 RMK AO2 SLP103 60003 T02220206 53022
 
KHTS - Huntington, West Virginia, USA
Distance from station: SSW 55mi, 89km
Updated: Mon, 24-Jun-2019 10:51pm EDT
Clear
Clear
 Wind from WSW
Wind: WSW 7 mph , 11 km/h
Temperature: 72°F , 22°C
Dew Point: 66°F , 19°C
Humidity: 83%
Barometer: 29.85 inHg , 1010.8 hPa
Clouds: Clear
Visibility: 10 miles , 16 km
2019/06/25 02:51 KHTS 250251Z 25006KT 10SM CLR 22/19 A2985 RMK AO2 SLP099 T02220194 51025
KLHQ - Lancaster, Ohio, USA
Distance from station: NW 56mi, 91km
Updated: Mon, 24-Jun-2019 10:53pm EDT
Clear
Clear
 Wind from WSW
Wind: WSW 6 mph , 9 km/h
Temperature: 70°F , 21°C
Dew Point: 66°F , 19°C
Humidity: 88%
Barometer: 29.81 inHg , 1009.5 hPa
Clouds: Clear
Visibility: 10 miles , 16 km
2019/06/25 02:53 KLHQ 250253Z AUTO 25005KT 10SM CLR 21/19 A2981 RMK AO2 SLP085 60000 T02060189 51023
 
KZZV - Zanesville, Ohio, USA
Distance from station: N 61mi, 99km
Updated: Mon, 24-Jun-2019 5:53pm EDT
NOT Current

 
Temperature: 72°F , 22°C
Dew Point: 68°F , 20°C
Humidity: 88%
Barometer: 29.73 inHg , 1006.8 hPa
2019/06/24 21:53 KZZV 242153Z AUTO 22/20 A2973 RMK AO2 WSHFT 2040 LTG DSNT E AND SE RAE35 TSE2059 SLP059 P0003 T02220200 PWINO $
KLCK - Rickenbacker Ang, Ohio, USA
Distance from station: NW 68mi, 110km
Updated: Mon, 24-Jun-2019 11:15pm EDT
Clear
Clear
 Wind from SW
Wind: SW 5 mph , 7 km/h
Temperature: 68°F , 20°C
Dew Point: 66°F , 19°C
Humidity: 94%
Barometer: 29.80 inHg , 1009.1 hPa
Clouds: Clear
Visibility: 10 miles , 16 km
2019/06/25 03:15 KLCK 250315Z AUTO 22004KT 10SM CLR 20/19 A2980 RMK AO2 T01950191
 
KVTA - Newark, Ohio, USA
Distance from station: NNW 68mi, 110km
Updated: Mon, 24-Jun-2019 11:08pm EDT
Partly cloudy
Partly cloudy
 Wind from WSW
Wind: WSW 10 mph , 17 km/h
Temperature: 72°F , 22°C
Dew Point: 66°F , 19°C
Humidity: 83%
Barometer: 29.79 inHg , 1008.8 hPa
Clouds: Partly cloudy
Visibility: 10 miles , 16 km
Cloud details: Partly cloudy 1300 ft
2019/06/25 03:08 KVTA 250308Z AUTO 25009KT 10SM SCT013 22/19 A2979 RMK AO2 T02170194